EUS35RD LFMN-LIRF
Flight info
| Callsign | EUS35RD |
|---|---|
| Flight time | N/A |
| Altitude | 31000 |
| Route | SODRI DCT RAPUR DCT RATAP DCT BTA/N0415F280 DCT MOULE DCT XOPTA DCT ELB DCT ELKAP |
| Aircraft | B738/M-SDE2E3FGHIRWXY/LB1 |
Departure
| Time | 2026-05-07 09:19 |
|---|---|
| Airport | Nice-Côte d'Azur Airport (LFMN) |
Arrival
| Time | N/A |
|---|---|
| Airport | Rome–Fiumicino Leonardo da Vinci International Airport (LIRF) |
| Time | Latitude | Longitude | Altitude | Speed | Heading |
|---|---|---|---|---|---|
| 2026-05-07 08:57 | 43.66170 | 7.20680 | 21 ft | 0 kts | 261° |
| 2026-05-07 09:11 | 43.66172 | 7.20695 | 21 ft | 4 kts | 261° |
| 2026-05-07 09:11 | 43.66184 | 7.20765 | 22 ft | 4 kts | 221° |
| 2026-05-07 09:12 | 43.66206 | 7.20775 | 23 ft | 3 kts | 171° |
| 2026-05-07 09:12 | 43.66229 | 7.20769 | 21 ft | 2 kts | 169° |
| 2026-05-07 09:12 | 43.66230 | 7.20769 | 21 ft | 0 kts | 169° |
| 2026-05-07 09:14 | 43.66222 | 7.20771 | 22 ft | 4 kts | 169° |
| 2026-05-07 09:14 | 43.66169 | 7.20783 | 23 ft | 11 kts | 171° |
| 2026-05-07 09:14 | 43.66079 | 7.20804 | 21 ft | 15 kts | 171° |
| 2026-05-07 09:14 | 43.65965 | 7.20829 | 21 ft | 18 kts | 171° |
| 2026-05-07 09:15 | 43.65834 | 7.20859 | 21 ft | 20 kts | 171° |
| 2026-05-07 09:15 | 43.65710 | 7.20816 | 21 ft | 19 kts | 224° |
| 2026-05-07 09:15 | 43.65617 | 7.20687 | 21 ft | 19 kts | 225° |
| 2026-05-07 09:15 | 43.65529 | 7.20564 | 21 ft | 18 kts | 225° |
| 2026-05-07 09:16 | 43.65441 | 7.20444 | 21 ft | 17 kts | 225° |
| 2026-05-07 09:16 | 43.65357 | 7.20328 | 21 ft | 17 kts | 224° |
| 2026-05-07 09:16 | 43.65251 | 7.20331 | 21 ft | 17 kts | 139° |
| 2026-05-07 09:16 | 43.65167 | 7.20447 | 21 ft | 17 kts | 139° |
| 2026-05-07 09:17 | 43.65058 | 7.20452 | 22 ft | 17 kts | 219° |
| 2026-05-07 09:17 | 43.64970 | 7.20332 | 21 ft | 18 kts | 225° |
| 2026-05-07 09:17 | 43.64878 | 7.20207 | 21 ft | 19 kts | 225° |
| 2026-05-07 09:17 | 43.64764 | 7.20150 | 21 ft | 18 kts | 150° |
| 2026-05-07 09:18 | 43.64705 | 7.20248 | 21 ft | 11 kts | 113° |
| 2026-05-07 09:18 | 43.64736 | 7.20335 | 21 ft | 11 kts | 46° |
| 2026-05-07 09:18 | 43.64742 | 7.20344 | 21 ft | 0 kts | 46° |
| 2026-05-07 09:18 | 43.64743 | 7.20345 | 21 ft | 2 kts | 46° |
| 2026-05-07 09:19 | 43.64928 | 7.20599 | 21 ft | 76 kts | 45° |
| 2026-05-07 09:19 | 43.65474 | 7.21351 | 29 ft | 142 kts | 46° |
| 2026-05-07 09:19 | 43.66224 | 7.22439 | 473 ft | 160 kts | 49° |
| 2026-05-07 09:19 | 43.66947 | 7.23586 | 1325 ft | 158 kts | 63° |
| 2026-05-07 09:20 | 43.67019 | 7.25065 | 1981 ft | 168 kts | 114° |
| 2026-05-07 09:20 | 43.66161 | 7.26353 | 2306 ft | 200 kts | 140° |
| 2026-05-07 09:20 | 43.65067 | 7.27650 | 2793 ft | 212 kts | 138° |
| 2026-05-07 09:20 | 43.63944 | 7.29039 | 3371 ft | 220 kts | 138° |
| 2026-05-07 09:21 | 43.62796 | 7.30484 | 4035 ft | 227 kts | 138° |
| 2026-05-07 09:21 | 43.61624 | 7.31973 | 4853 ft | 230 kts | 139° |
| 2026-05-07 09:21 | 43.60447 | 7.33474 | 5677 ft | 232 kts | 139° |
| 2026-05-07 09:21 | 43.59103 | 7.34692 | 6411 ft | 233 kts | 162° |
| 2026-05-07 09:22 | 43.57565 | 7.35422 | 7182 ft | 235 kts | 163° |
| 2026-05-07 09:22 | 43.56012 | 7.36185 | 7968 ft | 238 kts | 163° |
| 2026-05-07 09:22 | 43.54464 | 7.36961 | 8725 ft | 241 kts | 163° |
| 2026-05-07 09:22 | 43.52882 | 7.37759 | 9514 ft | 243 kts | 163° |
| 2026-05-07 09:23 | 43.51278 | 7.38570 | 10187 ft | 252 kts | 163° |
| 2026-05-07 09:23 | 43.49550 | 7.39439 | 10423 ft | 278 kts | 162° |
| 2026-05-07 09:23 | 43.47651 | 7.40395 | 10634 ft | 304 kts | 162° |
| 2026-05-07 09:23 | 43.45585 | 7.41436 | 10850 ft | 328 kts | 162° |
| 2026-05-07 09:24 | 43.43401 | 7.42540 | 11370 ft | 339 kts | 162° |
| 2026-05-07 09:24 | 43.41167 | 7.43673 | 12094 ft | 345 kts | 162° |
| 2026-05-07 09:24 | 43.38904 | 7.44819 | 12873 ft | 349 kts | 162° |
| 2026-05-07 09:24 | 43.36615 | 7.45976 | 13704 ft | 353 kts | 162° |
| 2026-05-07 09:25 | 43.34300 | 7.47145 | 14439 ft | 357 kts | 162° |
| 2026-05-07 09:25 | 43.31954 | 7.48328 | 15202 ft | 361 kts | 162° |
| 2026-05-07 09:25 | 43.29588 | 7.49520 | 15982 ft | 364 kts | 162° |
| 2026-05-07 09:25 | 43.27200 | 7.50721 | 16743 ft | 368 kts | 162° |
| 2026-05-07 09:26 | 43.24784 | 7.51935 | 17508 ft | 372 kts | 163° |
| 2026-05-07 09:26 | 43.22341 | 7.53163 | 18236 ft | 376 kts | 163° |
| 2026-05-07 09:26 | 43.19869 | 7.54403 | 18898 ft | 380 kts | 163° |
| 2026-05-07 09:26 | 43.17371 | 7.55656 | 19545 ft | 383 kts | 163° |
| 2026-05-07 09:27 | 43.14856 | 7.56916 | 20209 ft | 386 kts | 163° |
| 2026-05-07 09:27 | 43.12470 | 7.58686 | 20825 ft | 398 kts | 144° |
| 2026-05-07 09:27 | 43.09594 | 7.65240 | 22040 ft | 419 kts | 103° |
| 2026-05-07 09:28 | 43.09127 | 7.69186 | 22639 ft | 424 kts | 99° |
| 2026-05-07 09:28 | 43.08709 | 7.73212 | 23155 ft | 429 kts | 100° |
| 2026-05-07 09:28 | 43.08412 | 7.75898 | 23521 ft | 432 kts | 101° |
| 2026-05-07 09:28 | 43.07932 | 7.79968 | 23977 ft | 437 kts | 101° |
| 2026-05-07 09:29 | 43.07293 | 7.85438 | 24590 ft | 442 kts | 101° |
| 2026-05-07 09:29 | 43.06972 | 7.88252 | 24907 ft | 444 kts | 101° |
| 2026-05-07 09:29 | 43.06497 | 7.92440 | 25352 ft | 448 kts | 101° |
| 2026-05-07 09:29 | 43.05858 | 7.98052 | 25913 ft | 453 kts | 101° |
| 2026-05-07 09:30 | 43.05529 | 8.00930 | 26193 ft | 456 kts | 101° |
| 2026-05-07 09:30 | 43.05041 | 8.05179 | 26602 ft | 460 kts | 101° |
| 2026-05-07 09:30 | 43.04540 | 8.09514 | 27014 ft | 463 kts | 102° |
| 2026-05-07 09:30 | 43.04033 | 8.13883 | 27422 ft | 467 kts | 102° |
| 2026-05-07 09:31 | 43.03521 | 8.18284 | 27819 ft | 471 kts | 102° |
| 2026-05-07 09:31 | 43.03001 | 8.22730 | 28201 ft | 474 kts | 102° |
| 2026-05-07 09:31 | 43.02478 | 8.27204 | 28583 ft | 478 kts | 102° |
| 2026-05-07 09:31 | 43.01949 | 8.31701 | 28976 ft | 481 kts | 102° |
| 2026-05-07 09:32 | 43.01385 | 8.36202 | 29472 ft | 479 kts | 107° |
| 2026-05-07 09:32 | 43.00248 | 8.40418 | 29989 ft | 469 kts | 122° |
| 2026-05-07 09:32 | 42.98691 | 8.44311 | 30481 ft | 466 kts | 124° |
| 2026-05-07 09:32 | 42.97094 | 8.48168 | 30875 ft | 467 kts | 125° |
| 2026-05-07 09:33 | 42.95498 | 8.52052 | 31006 ft | 472 kts | 124° |
| 2026-05-07 09:33 | 42.92350 | 8.59947 | 31003 ft | 471 kts | 123° |
| 2026-05-07 09:34 | 42.89275 | 8.67763 | 31007 ft | 467 kts | 123° |
| 2026-05-07 09:34 | 42.86183 | 8.75569 | 31017 ft | 469 kts | 124° |
| 2026-05-07 09:35 | 42.83070 | 8.83406 | 31013 ft | 470 kts | 124° |
| 2026-05-07 09:35 | 42.79953 | 8.91242 | 31015 ft | 470 kts | 124° |
| 2026-05-07 09:36 | 42.76854 | 8.99014 | 31011 ft | 470 kts | 124° |
| 2026-05-07 09:36 | 42.73737 | 9.06813 | 31005 ft | 468 kts | 124° |
| 2026-05-07 09:37 | 42.70632 | 9.14563 | 31003 ft | 466 kts | 124° |
| 2026-05-07 09:37 | 42.67531 | 9.22312 | 31014 ft | 467 kts | 124° |
| 2026-05-07 09:38 | 42.64424 | 9.30061 | 31011 ft | 467 kts | 124° |
| 2026-05-07 09:38 | 42.61310 | 9.37808 | 31031 ft | 468 kts | 124° |
| 2026-05-07 09:39 | 42.58593 | 9.45843 | 31027 ft | 477 kts | 107° |
| 2026-05-07 09:39 | 42.58150 | 9.50324 | 31024 ft | 483 kts | 94° |
| 2026-05-07 09:39 | 42.58469 | 9.54879 | 31018 ft | 486 kts | 79° |
| 2026-05-07 09:40 | 42.60117 | 9.63769 | 31019 ft | 486 kts | 76° |
| 2026-05-07 09:40 | 42.61715 | 9.72626 | 31021 ft | 485 kts | 78° |
| 2026-05-07 09:41 | 42.63207 | 9.81466 | 31024 ft | 484 kts | 78° |
| 2026-05-07 09:41 | 42.64728 | 9.90368 | 31031 ft | 484 kts | 78° |
| 2026-05-07 09:42 | 42.66262 | 9.99282 | 31031 ft | 484 kts | 78° |
| 2026-05-07 09:42 | 42.67789 | 10.08190 | 31033 ft | 484 kts | 78° |
| 2026-05-07 09:43 | 42.69308 | 10.17114 | 31032 ft | 485 kts | 78° |
| 2026-05-07 09:43 | 42.70821 | 10.26049 | 31037 ft | 485 kts | 78° |
| 2026-05-07 09:44 | 42.72327 | 10.34984 | 31032 ft | 485 kts | 79° |
| 2026-05-07 09:44 | 42.73079 | 10.44029 | 30514 ft | 477 kts | 96° |
| 2026-05-07 09:44 | 42.72859 | 10.48503 | 30084 ft | 470 kts | 99° |
| 2026-05-07 09:45 | 42.72602 | 10.52919 | 29565 ft | 466 kts | 98° |
| 2026-05-07 09:45 | 42.72386 | 10.57295 | 29102 ft | 461 kts | 97° |
| 2026-05-07 09:45 | 42.72188 | 10.61620 | 28637 ft | 454 kts | 101° |
| 2026-05-07 09:45 | 42.71484 | 10.65657 | 28184 ft | 437 kts | 119° |
| 2026-05-07 09:46 | 42.70070 | 10.69220 | 27763 ft | 423 kts | 128° |
| 2026-05-07 09:46 | 42.68509 | 10.72590 | 27294 ft | 418 kts | 129° |
| 2026-05-07 09:46 | 42.66943 | 10.75900 | 26839 ft | 414 kts | 129° |
| 2026-05-07 09:46 | 42.65393 | 10.79179 | 26406 ft | 411 kts | 129° |
| 2026-05-07 09:47 | 42.63868 | 10.82436 | 25970 ft | 408 kts | 129° |
| 2026-05-07 09:47 | 42.62358 | 10.85687 | 25550 ft | 404 kts | 128° |
| 2026-05-07 09:47 | 42.60870 | 10.88907 | 25127 ft | 401 kts | 128° |
| 2026-05-07 09:47 | 42.59391 | 10.92115 | 24697 ft | 399 kts | 128° |
| 2026-05-07 09:48 | 42.57925 | 10.95297 | 24287 ft | 396 kts | 128° |
| 2026-05-07 09:48 | 42.56468 | 10.98457 | 23877 ft | 394 kts | 128° |
| 2026-05-07 09:48 | 42.55016 | 11.01604 | 23418 ft | 392 kts | 128° |
| 2026-05-07 09:48 | 42.53571 | 11.04729 | 22958 ft | 390 kts | 128° |
| 2026-05-07 09:49 | 42.52157 | 11.07788 | 22530 ft | 386 kts | 128° |
| 2026-05-07 09:49 | 42.50731 | 11.10867 | 22106 ft | 383 kts | 128° |
| 2026-05-07 09:49 | 42.49321 | 11.13910 | 21693 ft | 379 kts | 128° |
| 2026-05-07 09:49 | 42.47923 | 11.16925 | 21273 ft | 376 kts | 128° |
| 2026-05-07 09:50 | 42.46533 | 11.19916 | 20859 ft | 374 kts | 128° |
| 2026-05-07 09:50 | 42.45155 | 11.22880 | 20468 ft | 371 kts | 127° |
| 2026-05-07 09:50 | 42.43991 | 11.26001 | 20045 ft | 377 kts | 110° |
| 2026-05-07 09:50 | 42.43494 | 11.29488 | 19697 ft | 377 kts | 102° |
| 2026-05-07 09:51 | 42.43131 | 11.33000 | 19260 ft | 376 kts | 101° |
| 2026-05-07 09:51 | 42.42782 | 11.36499 | 18859 ft | 375 kts | 101° |
| 2026-05-07 09:51 | 42.42420 | 11.39987 | 18459 ft | 373 kts | 101° |
| 2026-05-07 09:51 | 42.42044 | 11.43454 | 18021 ft | 371 kts | 102° |
| 2026-05-07 09:52 | 42.41663 | 11.46861 | 17584 ft | 369 kts | 102° |